createdAt,value
2022-09-20T00:01:34.488Z,83.00
2022-09-20T00:04:05.668Z,82.90
2022-09-20T00:06:34.266Z,82.40
2022-09-20T00:09:03.293Z,81.60
2022-09-20T00:11:33.305Z,83.80
2022-09-20T00:14:02.602Z,84.40
2022-09-20T00:16:32.858Z,83.20
2022-09-20T00:19:04.272Z,83.40
2022-09-20T00:21:34.849Z,84.10
2022-09-20T00:24:02.677Z,84.30
2022-09-20T00:26:30.159Z,83.60
2022-09-20T00:28:58.988Z,82.90
2022-09-20T00:31:26.914Z,82.50
2022-09-20T00:34:14.255Z,82.20
2022-09-20T00:36:41.649Z,81.80
2022-09-20T00:39:12.187Z,81.00
2022-09-20T00:41:39.582Z,80.50
2022-09-20T00:44:48.202Z,81.90
2022-09-20T00:47:38.785Z,82.90
2022-09-20T00:50:11.156Z,82.50
2022-09-20T00:52:39.021Z,81.90
2022-09-20T00:55:08.798Z,81.30
2022-09-20T00:57:38.740Z,81.10
2022-09-20T01:00:10.259Z,81.50
2022-09-20T01:02:42.137Z,81.80
2022-09-20T01:05:44.238Z,81.50
2022-09-20T01:08:12.589Z,80.90
2022-09-20T01:10:39.942Z,80.40
2022-09-20T01:13:08.048Z,81.10
2022-09-20T01:15:43.972Z,82.50
2022-09-20T01:18:13.612Z,83.00
2022-09-20T01:20:44.569Z,82.70
2022-09-20T01:23:29.144Z,82.30
2022-09-20T01:26:26.809Z,81.80
2022-09-20T01:29:10.857Z,81.00
2022-09-20T01:31:46.425Z,80.80
2022-09-20T01:34:31.717Z,81.60
2022-09-20T01:37:19.807Z,81.80
2022-09-20T01:40:01.812Z,81.60
2022-09-20T01:42:38.601Z,82.70
2022-09-20T01:45:14.606Z,83.70
2022-09-20T01:52:13.971Z,83.90
2022-09-20T01:55:07.784Z,83.50
2022-09-20T01:57:46.631Z,82.70
2022-09-20T02:00:19.122Z,82.10
2022-09-20T02:03:04.343Z,81.80
2022-09-20T02:05:48.316Z,81.50
2022-09-20T02:08:33.135Z,82.40
2022-09-20T02:11:09.765Z,82.90
2022-09-20T02:13:40.346Z,82.30
2022-09-20T02:16:23.683Z,82.10
2022-09-20T02:19:33.918Z,81.90
2022-09-20T02:22:13.901Z,81.80
2022-09-20T02:25:25.954Z,81.90
2022-09-20T02:28:14.541Z,83.70
2022-09-20T02:30:56.527Z,84.20
2022-09-20T02:33:51.213Z,84.90
2022-09-20T02:36:21.446Z,84.60
2022-09-20T02:39:11.359Z,83.80
2022-09-20T02:41:41.486Z,84.20
2022-09-20T02:44:29.223Z,84.00
2022-09-20T02:47:07.515Z,83.20
2022-09-20T02:49:49.547Z,82.00
2022-09-20T02:52:22.749Z,82.10
2022-09-20T02:55:01.828Z,82.60
2022-09-20T02:57:50.301Z,83.70
2022-09-20T03:00:26.173Z,83.40
2022-09-20T03:02:53.568Z,82.20
2022-09-20T03:05:43.997Z,81.50
2022-09-20T03:08:49.269Z,80.70
2022-09-20T03:11:46.115Z,79.70
2022-09-20T03:14:29.148Z,80.70
2022-09-20T03:17:21.281Z,81.30
2022-09-20T03:20:11.951Z,81.50
2022-09-20T03:22:42.759Z,79.50
2022-09-20T03:25:34.539Z,80.50
2022-09-20T03:28:26.745Z,80.20
2022-09-20T03:31:09.375Z,80.20
2022-09-20T03:33:51.914Z,80.10
2022-09-20T03:36:29.952Z,77.70
2022-09-20T03:39:22.656Z,77.90
2022-09-20T03:42:02.121Z,77.60
2022-09-20T03:44:59.391Z,78.10
2022-09-20T03:47:48.391Z,78.80
2022-09-20T03:50:47.507Z,78.60
2022-09-20T03:53:46.675Z,78.40
2022-09-20T03:56:35.998Z,77.50
2022-09-20T03:59:31.850Z,82.10
2022-09-20T04:02:14.079Z,85.40
2022-09-20T04:04:51.713Z,85.60
2022-09-20T04:07:37.723Z,83.90
2022-09-20T04:10:30.444Z,82.00
2022-09-20T04:13:10.531Z,80.90
2022-09-20T04:16:06.717Z,80.70
2022-09-20T04:18:51.855Z,80.80
2022-09-20T04:21:24.983Z,83.20
2022-09-20T04:23:55.502Z,83.30
2022-09-20T04:26:26.324Z,82.90
2022-09-20T04:32:16.974Z,84.10
2022-09-20T04:35:17.715Z,85.00
2022-09-20T04:37:45.547Z,83.80
2022-09-20T04:40:18.914Z,81.40
2022-09-20T04:43:10.646Z,80.90
2022-09-20T04:45:51.880Z,80.90
2022-09-20T04:48:57.425Z,80.00
2022-09-20T04:51:30.727Z,77.20
2022-09-20T04:54:09.685Z,78.90
2022-09-20T04:56:58.071Z,79.10
2022-09-20T04:59:54.495Z,78.30
2022-09-20T05:02:37.772Z,79.20
2022-09-20T05:05:41.331Z,79.20
2022-09-20T05:08:45.851Z,80.50
2022-09-20T05:11:19.325Z,80.50
2022-09-20T05:13:58.117Z,80.90
2022-09-20T05:16:44.480Z,81.10
2022-09-20T05:19:26.728Z,82.50
2022-09-20T05:22:17.642Z,82.10
2022-09-20T05:25:08.174Z,80.50
2022-09-20T05:28:05.749Z,80.00
2022-09-20T05:30:55.531Z,80.40
2022-09-20T05:33:31.397Z,80.20
2022-09-20T05:36:09.197Z,80.00
2022-09-20T05:39:38.344Z,80.20
2022-09-20T05:42:40.692Z,80.40
2022-09-20T05:45:24.697Z,79.50
2022-09-20T05:47:53.251Z,79.80
2022-09-20T05:50:26.940Z,80.10
2022-09-20T05:53:23.661Z,80.80
2022-09-20T05:56:14.181Z,79.50
2022-09-20T05:59:13.153Z,79.80
2022-09-20T06:01:46.715Z,80.00
2022-09-20T06:04:21.552Z,81.10
2022-09-20T06:07:09.365Z,81.80
2022-09-20T06:09:45.720Z,80.70
2022-09-20T06:12:31.811Z,80.50
2022-09-20T06:15:41.287Z,81.10
2022-09-20T06:18:34.712Z,80.90
2022-09-20T06:21:18.514Z,80.90
2022-09-20T06:23:46.170Z,79.40
2022-09-20T06:26:26.418Z,79.70
2022-09-20T06:28:59.755Z,79.00
2022-09-20T06:31:27.868Z,78.20
2022-09-20T06:34:00.499Z,78.00
2022-09-20T06:36:50.636Z,77.70
2022-09-20T06:40:03.118Z,78.30
2022-09-20T06:42:31.497Z,78.50
2022-09-20T06:44:59.440Z,78.70
2022-09-20T06:47:27.739Z,78.40
2022-09-20T06:49:56.167Z,78.50
2022-09-20T06:52:23.753Z,78.60
2022-09-20T06:54:54.768Z,79.30
2022-09-20T06:57:36.629Z,79.00
2022-09-20T07:00:10.566Z,78.50
2022-09-20T07:02:37.899Z,75.20
2022-09-20T07:05:08.433Z,73.40
2022-09-20T07:07:35.637Z,68.70
2022-09-20T07:10:06.258Z,67.80
2022-09-20T07:12:35.254Z,65.90
2022-09-20T07:15:03.034Z,62.90
2022-09-20T07:17:31.032Z,62.50
2022-09-20T07:19:58.241Z,62.10
2022-09-20T07:22:26.649Z,62.10
2022-09-20T07:24:54.019Z,60.80
2022-09-20T07:27:21.827Z,61.90
2022-09-20T07:29:49.424Z,61.60
2022-09-20T07:32:17.964Z,61.90
2022-09-20T07:34:45.136Z,62.50
2022-09-20T07:37:12.860Z,61.50
2022-09-20T07:39:40.097Z,62.40
2022-09-20T07:42:07.591Z,60.80
2022-09-20T07:44:34.833Z,60.10
2022-09-20T07:47:02.195Z,57.00
2022-09-20T07:49:30.470Z,57.00
2022-09-20T07:51:58.823Z,57.50
2022-09-20T07:55:40.712Z,58.60
2022-09-20T07:58:10.030Z,55.80
2022-09-20T08:00:39.902Z,53.90
2022-09-20T08:03:08.742Z,53.60
2022-09-20T08:05:36.705Z,55.00
2022-09-20T08:08:03.937Z,53.30
2022-09-20T08:10:32.907Z,53.00
2022-09-20T08:15:49.919Z,52.40
2022-09-20T08:18:17.958Z,52.80
2022-09-20T08:20:45.214Z,53.60
2022-09-20T08:23:23.302Z,54.40
2022-09-20T08:25:51.375Z,54.10
2022-09-20T08:28:18.658Z,53.10
2022-09-20T08:30:48.113Z,53.20
2022-09-20T08:33:15.553Z,52.60
2022-09-20T08:35:43.011Z,53.40
2022-09-20T08:41:03.084Z,53.40
2022-09-20T08:43:45.563Z,53.80
2022-09-20T08:46:22.896Z,53.00
2022-09-20T08:48:50.866Z,50.70
2022-09-20T08:51:23.171Z,51.00
2022-09-20T08:53:54.430Z,51.40
2022-09-20T08:56:23.019Z,50.80
2022-09-20T08:58:51.450Z,51.70
2022-09-20T09:01:24.656Z,51.40
2022-09-20T09:03:58.206Z,50.10
2022-09-20T09:06:27.262Z,49.50
2022-09-20T09:08:58.395Z,50.10
2022-09-20T09:11:25.965Z,48.30
2022-09-20T09:14:01.720Z,50.30
2022-09-20T09:16:35.394Z,50.40
2022-09-20T09:19:36.800Z,49.40
2022-09-20T09:22:05.670Z,47.90
2022-09-20T09:24:32.958Z,47.20
2022-09-20T09:27:27.025Z,49.70
2022-09-20T09:29:57.027Z,49.30
2022-09-20T09:32:29.252Z,49.90
2022-09-20T09:35:18.922Z,48.50
2022-09-20T09:37:59.162Z,47.40
2022-09-20T09:40:28.489Z,47.40
2022-09-20T09:43:01.802Z,47.10
2022-09-20T09:45:43.414Z,45.20
2022-09-20T09:48:47.545Z,47.00
2022-09-20T09:51:18.464Z,47.00
2022-09-20T09:53:48.766Z,46.40
2022-09-20T09:56:22.959Z,47.90
2022-09-20T09:59:18.184Z,46.50
2022-09-20T10:02:13.130Z,47.10
2022-09-20T10:04:58.832Z,46.20
2022-09-20T10:07:44.257Z,47.50
2022-09-20T10:10:29.860Z,46.50
2022-09-20T10:13:35.063Z,47.60
2022-09-20T10:16:17.735Z,47.60
2022-09-20T10:18:57.252Z,46.50
2022-09-20T10:22:08.416Z,47.60
2022-09-20T10:24:51.651Z,47.40
2022-09-20T10:27:48.473Z,47.80
2022-09-20T10:30:22.519Z,48.90
2022-09-20T10:33:01.500Z,47.00
2022-09-20T10:35:52.905Z,46.90
2022-09-20T10:38:45.900Z,47.80
2022-09-20T10:41:41.908Z,47.10
2022-09-20T10:44:28.466Z,44.70
2022-09-20T10:47:21.175Z,46.20
2022-09-20T10:49:58.132Z,47.10
2022-09-20T10:52:31.846Z,45.70
2022-09-20T10:55:34.837Z,45.50
2022-09-20T10:58:16.375Z,45.20
2022-09-20T11:01:02.805Z,46.50
2022-09-20T11:03:50.010Z,45.80
2022-09-20T11:06:23.067Z,46.50
2022-09-20T11:08:56.040Z,46.50
2022-09-20T11:11:32.163Z,45.60
2022-09-20T11:14:16.501Z,45.70
2022-09-20T11:17:02.075Z,44.50
2022-09-20T11:19:36.061Z,46.10
2022-09-20T11:22:24.162Z,45.20
2022-09-20T11:25:00.456Z,46.50
2022-09-20T11:27:32.913Z,45.70
2022-09-20T11:30:14.008Z,45.40
2022-09-20T11:32:51.387Z,45.50
2022-09-20T11:35:18.739Z,44.20
2022-09-20T11:38:01.885Z,46.10
2022-09-20T11:40:34.950Z,44.00
2022-09-20T11:43:07.327Z,47.10
2022-09-20T11:45:42.554Z,47.30
2022-09-20T11:48:33.238Z,47.00
2022-09-20T11:51:29.875Z,46.80
2022-09-20T11:54:16.317Z,48.30
2022-09-20T11:56:51.845Z,48.50
2022-09-20T11:59:35.104Z,50.10
2022-09-20T12:02:13.044Z,49.10
2022-09-20T12:04:46.508Z,48.90
2022-09-20T12:07:38.502Z,50.40
2022-09-20T12:10:20.865Z,51.50
2022-09-20T12:12:55.093Z,51.20
2022-09-20T12:15:22.556Z,49.60
2022-09-20T12:17:52.545Z,48.90
2022-09-20T12:20:35.140Z,48.50
2022-09-20T12:23:43.123Z,47.20
2022-09-20T12:26:41.701Z,46.80
2022-09-20T12:29:24.298Z,48.40
2022-09-20T12:31:54.838Z,49.40
2022-09-20T12:34:22.794Z,49.10
2022-09-20T12:36:56.370Z,49.60
2022-09-20T12:39:36.173Z,49.50
2022-09-20T12:42:12.269Z,51.10
2022-09-20T12:44:50.395Z,51.00
2022-09-20T12:47:21.298Z,50.50
2022-09-20T12:50:07.292Z,50.90
2022-09-20T12:52:57.557Z,51.30
2022-09-20T12:55:30.463Z,52.10
2022-09-20T12:58:06.674Z,50.90
2022-09-20T13:00:47.200Z,48.50
2022-09-20T13:03:43.940Z,50.50
2022-09-20T13:06:20.613Z,50.70
2022-09-20T13:09:05.455Z,51.00
2022-09-20T13:11:47.731Z,49.80
2022-09-20T13:14:27.431Z,50.90
2022-09-20T13:17:05.662Z,51.50
2022-09-20T13:19:39.188Z,50.70
2022-09-20T13:22:12.433Z,51.80
2022-09-20T13:24:42.623Z,51.10
2022-09-20T13:27:18.979Z,52.90
2022-09-20T13:29:47.482Z,54.60
2022-09-20T13:32:29.032Z,54.80
2022-09-20T13:35:09.512Z,53.80
2022-09-20T13:37:43.106Z,52.60
2022-09-20T13:40:49.986Z,54.10
2022-09-20T13:43:33.926Z,53.60
2022-09-20T13:46:08.100Z,53.90
2022-09-20T13:48:35.965Z,54.30
2022-09-20T13:51:03.610Z,52.80
2022-09-20T13:53:46.598Z,53.20
2022-09-20T13:56:23.217Z,54.00
2022-09-20T13:58:52.941Z,54.70
2022-09-20T14:01:32.520Z,55.10
2022-09-20T14:04:16.375Z,55.10
2022-09-20T14:06:45.132Z,54.30
2022-09-20T14:09:35.409Z,52.90
2022-09-20T14:12:06.468Z,53.60
2022-09-20T14:14:35.498Z,54.50
2022-09-20T14:17:07.864Z,53.70
2022-09-20T14:19:41.214Z,52.40
2022-09-20T14:22:16.057Z,54.50
2022-09-20T14:25:18.792Z,53.30
2022-09-20T14:27:46.589Z,52.50
2022-09-20T14:30:43.316Z,53.70
2022-09-20T14:33:21.812Z,55.00
2022-09-20T14:35:52.895Z,54.70
2022-09-20T14:38:25.507Z,54.90
2022-09-20T14:40:53.102Z,54.40
2022-09-20T14:50:45.200Z,55.20
2022-09-20T15:13:12.682Z,57.40
2022-09-20T15:15:42.108Z,57.50
2022-09-20T15:18:26.636Z,57.90
2022-09-20T15:20:55.419Z,58.10
2022-09-20T15:23:22.843Z,58.20
2022-09-20T15:25:52.186Z,58.30
2022-09-20T15:28:20.577Z,58.40
2022-09-20T15:30:52.399Z,58.40
2022-09-20T15:33:22.348Z,58.40
2022-09-20T15:35:50.814Z,58.60
2022-09-20T15:38:24.311Z,58.40
2022-09-20T15:40:51.734Z,58.80
2022-09-20T15:43:24.304Z,58.90
2022-09-20T15:45:55.912Z,59.00
2022-09-20T15:48:31.136Z,58.70
2022-09-20T15:51:11.033Z,59.00
2022-09-20T15:53:45.298Z,58.70
2022-09-20T15:56:22.259Z,58.90
2022-09-20T15:58:59.263Z,59.10
2022-09-20T16:01:38.324Z,59.40
2022-09-20T16:04:13.781Z,59.10
2022-09-20T16:06:43.304Z,59.10
2022-09-20T16:09:10.835Z,57.90
2022-09-20T16:11:39.348Z,55.20
2022-09-20T16:14:08.233Z,55.30
2022-09-20T16:16:40.421Z,54.60
2022-09-20T16:19:21.146Z,52.40
2022-09-20T16:21:57.602Z,51.70
2022-09-20T16:24:35.924Z,51.40
2022-09-20T16:27:08.201Z,51.80
2022-09-20T16:29:37.783Z,52.80
2022-09-20T16:32:09.048Z,53.70
2022-09-20T16:34:38.306Z,54.10
2022-09-20T16:37:17.654Z,53.90
2022-09-20T16:39:57.405Z,55.00
2022-09-20T16:42:28.241Z,55.90
2022-09-20T16:44:57.566Z,55.10
2022-09-20T16:47:26.478Z,55.60
2022-09-20T16:49:54.441Z,55.40
2022-09-20T16:52:22.199Z,55.70
2022-09-20T16:54:50.002Z,56.50
2022-09-20T16:57:17.372Z,56.90
2022-09-20T16:59:46.393Z,57.40
2022-09-20T17:02:17.233Z,57.40
2022-09-20T17:04:45.245Z,57.90
2022-09-20T17:07:14.714Z,58.70
2022-09-20T17:09:43.795Z,59.80
2022-09-20T17:12:11.240Z,60.80
2022-09-20T17:14:38.655Z,61.20
2022-09-20T17:17:06.610Z,61.30
2022-09-20T17:19:34.240Z,61.00
2022-09-20T17:22:01.849Z,61.50
2022-09-20T17:24:30.340Z,61.90
2022-09-20T17:26:57.638Z,61.80
2022-09-20T17:29:25.269Z,61.60
2022-09-20T17:31:56.675Z,61.70
2022-09-20T17:34:26.489Z,61.80
2022-09-20T17:36:56.898Z,62.40
2022-09-20T17:39:24.102Z,62.00
2022-09-20T17:41:51.652Z,61.90
2022-09-20T17:44:19.426Z,62.00
2022-09-20T17:46:50.088Z,61.90
2022-09-20T17:49:19.840Z,62.00
2022-09-20T17:51:52.707Z,62.10
2022-09-20T17:54:20.981Z,62.20
2022-09-20T17:56:50.529Z,62.20
2022-09-20T17:59:19.338Z,62.30
2022-09-20T18:01:49.907Z,62.20
2022-09-20T18:04:17.914Z,62.40
2022-09-20T18:06:48.332Z,63.30
2022-09-20T18:09:16.870Z,63.90
2022-09-20T18:11:52.951Z,63.40
2022-09-20T18:14:23.391Z,63.40
2022-09-20T18:16:58.129Z,63.50
2022-09-20T18:19:32.641Z,63.40
2022-09-20T18:22:02.336Z,63.20
2022-09-20T18:24:30.889Z,63.40
2022-09-20T18:26:58.279Z,63.50
2022-09-20T18:29:25.526Z,63.90
2022-09-20T18:31:58.121Z,63.90
2022-09-20T18:34:31.301Z,63.70
2022-09-20T18:37:00.681Z,63.60
2022-09-20T18:39:31.168Z,63.90
2022-09-20T18:41:59.406Z,63.50
2022-09-20T18:44:28.466Z,63.40
2022-09-20T18:46:55.810Z,63.60
2022-09-20T18:49:23.330Z,64.00
2022-09-20T18:51:51.356Z,64.30
2022-09-20T18:54:19.253Z,64.70
2022-09-20T18:56:49.556Z,64.30
2022-09-20T18:59:25.527Z,64.20
2022-09-20T19:02:08.205Z,64.40
2022-09-20T19:04:47.868Z,63.70
2022-09-20T19:07:17.949Z,64.10
2022-09-20T19:10:06.853Z,63.90
2022-09-20T19:13:02.272Z,64.00
2022-09-20T19:16:07.234Z,64.50
2022-09-20T19:19:25.990Z,63.90
2022-09-20T19:22:37.224Z,63.50
2022-09-20T19:25:53.683Z,63.70
2022-09-20T19:28:21.825Z,63.90
2022-09-20T19:30:52.206Z,63.60
2022-09-20T19:33:19.449Z,63.60
2022-09-20T19:35:50.210Z,63.70
2022-09-20T19:38:35.384Z,63.70
2022-09-20T19:41:19.406Z,63.70
2022-09-20T19:44:18.415Z,63.90
2022-09-20T19:47:09.694Z,64.00
2022-09-20T19:49:47.568Z,63.70
2022-09-20T19:52:15.431Z,63.70
2022-09-20T19:54:47.046Z,63.40
2022-09-20T19:57:23.206Z,63.40
2022-09-20T19:59:51.329Z,63.60
2022-09-20T20:02:18.927Z,63.60
2022-09-20T20:04:47.233Z,64.00
2022-09-20T20:07:52.263Z,64.00
2022-09-20T20:10:44.346Z,64.00
2022-09-20T20:13:38.219Z,63.90
2022-09-20T20:16:12.333Z,64.30
2022-09-20T20:19:01.665Z,64.20
2022-09-20T20:21:53.989Z,64.00
2022-09-20T20:24:44.600Z,63.90
2022-09-20T20:27:13.214Z,64.10
2022-09-20T20:29:41.360Z,63.70
2022-09-20T20:32:08.856Z,63.90
2022-09-20T20:34:37.212Z,64.00
2022-09-20T20:37:05.265Z,64.20
2022-09-20T20:39:33.225Z,64.10
2022-09-20T20:42:03.570Z,64.20
2022-09-20T20:44:33.808Z,64.10
2022-09-20T20:47:05.012Z,64.00
2022-09-20T20:49:33.320Z,63.90
2022-09-20T20:52:04.935Z,64.00
2022-09-20T20:54:33.071Z,64.10
2022-09-20T20:57:00.783Z,64.20
2022-09-20T20:59:28.160Z,64.30
2022-09-20T21:01:56.243Z,64.30
2022-09-20T21:04:25.407Z,64.20
2022-09-20T21:06:52.695Z,64.60
2022-09-20T21:09:20.002Z,65.50
2022-09-20T21:11:48.588Z,66.10
2022-09-20T21:14:16.681Z,67.50
2022-09-20T21:16:44.518Z,67.30
2022-09-20T21:19:16.318Z,68.10
2022-09-20T21:21:46.143Z,68.50
2022-09-20T21:24:17.526Z,67.80
2022-09-20T21:26:48.995Z,68.90
2022-09-20T21:29:17.362Z,69.40
2022-09-20T21:31:47.359Z,69.50
2022-09-20T21:34:17.364Z,70.50
2022-09-20T21:36:46.031Z,70.50
2022-09-20T21:39:13.692Z,70.50
2022-09-20T21:41:41.697Z,71.20
2022-09-20T21:44:12.470Z,70.70
2022-09-20T21:46:41.844Z,71.80
2022-09-20T21:49:11.186Z,73.30
2022-09-20T21:51:40.408Z,73.20
2022-09-20T21:54:08.994Z,72.60
2022-09-20T21:56:38.125Z,72.00
2022-09-20T21:59:07.851Z,72.20
2022-09-20T22:01:40.481Z,73.20
2022-09-20T22:04:10.272Z,72.00
2022-09-20T22:06:40.213Z,72.00
2022-09-20T22:09:13.376Z,71.90
2022-09-20T22:11:49.085Z,72.80
2022-09-20T22:14:19.848Z,72.80
2022-09-20T22:16:49.235Z,74.30
2022-09-20T22:19:17.886Z,74.50
2022-09-20T22:21:48.535Z,73.20
2022-09-20T22:24:17.126Z,75.00
2022-09-20T22:26:50.348Z,75.40
2022-09-20T22:29:18.733Z,75.50
2022-09-20T22:31:49.006Z,74.50
2022-09-20T22:34:21.671Z,74.00
2022-09-20T22:36:49.736Z,72.80
2022-09-20T22:39:17.460Z,72.20
2022-09-20T22:41:45.855Z,73.30
2022-09-20T22:44:13.360Z,72.70
2022-09-20T22:46:40.975Z,72.80
2022-09-20T22:49:09.648Z,72.20
2022-09-20T22:51:37.710Z,71.80
2022-09-20T22:54:08.768Z,71.90
2022-09-20T22:56:37.185Z,72.20
2022-09-20T22:59:07.322Z,72.90
2022-09-20T23:01:37.007Z,72.60
2022-09-20T23:04:08.351Z,70.70
2022-09-20T23:06:49.276Z,70.70
2022-09-20T23:09:18.277Z,70.10
2022-09-20T23:11:46.086Z,71.30
2022-09-20T23:14:18.003Z,70.70
2022-09-20T23:16:45.663Z,70.40
2022-09-20T23:19:13.709Z,71.00
2022-09-20T23:21:42.321Z,70.10
2022-09-20T23:24:11.687Z,70.20
2022-09-20T23:27:19.383Z,71.10
2022-09-20T23:29:47.210Z,73.40
2022-09-20T23:32:14.685Z,73.70
2022-09-20T23:34:42.494Z,73.30
2022-09-20T23:37:10.017Z,72.80
2022-09-20T23:39:37.337Z,72.10
2022-09-20T23:42:05.108Z,71.70
2022-09-20T23:44:32.621Z,71.20
2022-09-20T23:47:00.137Z,70.90
2022-09-20T23:49:27.730Z,69.70
2022-09-20T23:51:55.037Z,68.50
2022-09-20T23:54:22.445Z,66.70
2022-09-20T23:56:49.880Z,66.40
2022-09-20T23:59:17.855Z,67.40
